createdAt,value
2024-05-09T00:00:02.239Z,10.79
2024-05-09T00:02:31.829Z,10.73
2024-05-09T00:05:04.087Z,10.72
2024-05-09T00:07:34.519Z,10.72
2024-05-09T00:10:05.554Z,10.65
2024-05-09T00:12:36.673Z,10.63
2024-05-09T00:15:06.481Z,10.65
2024-05-09T00:17:36.071Z,10.57
2024-05-09T00:20:17.436Z,10.64
2024-05-09T00:22:50.118Z,10.58
2024-05-09T00:25:19.598Z,10.54
2024-05-09T00:27:49.196Z,10.52
2024-05-09T00:30:27.769Z,10.49
2024-05-09T00:33:02.344Z,10.42
2024-05-09T00:35:34.900Z,10.41
2024-05-09T00:38:04.755Z,10.30
2024-05-09T00:40:39.918Z,10.34
2024-05-09T00:43:13.929Z,10.33
2024-05-09T00:45:44.513Z,10.29
2024-05-09T00:48:17.697Z,10.29
2024-05-09T00:50:54.229Z,10.28
2024-05-09T00:53:23.919Z,10.21
2024-05-09T00:55:55.577Z,10.13
2024-05-09T00:58:27.005Z,10.17
2024-05-09T01:00:58.876Z,10.09
2024-05-09T01:03:28.600Z,10.15
2024-05-09T01:06:00.907Z,10.08
2024-05-09T01:08:33.512Z,10.08
2024-05-09T01:11:03.171Z,10.02
2024-05-09T01:13:32.756Z,9.96
2024-05-09T01:16:02.370Z,9.99
2024-05-09T01:18:32.168Z,9.91
2024-05-09T01:21:04.464Z,9.83
2024-05-09T01:23:39.519Z,9.95
2024-05-09T01:26:09.193Z,9.85
2024-05-09T01:28:38.693Z,9.87
2024-05-09T01:31:08.658Z,9.78
2024-05-09T01:33:38.522Z,9.75
2024-05-09T01:36:08.811Z,9.80
2024-05-09T01:38:40.966Z,9.71
2024-05-09T01:41:10.524Z,9.74
2024-05-09T01:43:39.993Z,9.72
2024-05-09T01:46:14.797Z,9.66
2024-05-09T01:48:45.593Z,9.70
2024-05-09T01:51:18.313Z,9.59
2024-05-09T01:53:51.105Z,9.65
2024-05-09T01:56:20.582Z,9.62
2024-05-09T01:58:50.174Z,9.56
2024-05-09T02:01:19.724Z,9.60
2024-05-09T02:03:49.410Z,9.65
2024-05-09T02:06:19.209Z,9.67
2024-05-09T02:08:51.326Z,9.68
2024-05-09T02:11:20.911Z,9.62
2024-05-09T02:13:53.254Z,9.73
2024-05-09T02:16:22.772Z,9.64
2024-05-09T02:18:52.533Z,9.59
2024-05-09T02:21:22.084Z,9.61
2024-05-09T02:23:54.276Z,9.49
2024-05-09T02:26:23.818Z,9.48
2024-05-09T02:28:53.418Z,9.45
2024-05-09T02:31:22.892Z,9.34
2024-05-09T02:33:50.102Z,9.34
2024-05-09T02:36:19.824Z,9.36
2024-05-09T02:38:46.676Z,9.34
2024-05-09T02:41:18.883Z,9.37
2024-05-09T02:43:45.806Z,9.27
2024-05-09T02:46:15.508Z,9.25
2024-05-09T02:48:43.304Z,9.26
2024-05-09T02:51:15.581Z,9.29
2024-05-09T02:53:42.524Z,9.27
2024-05-09T02:56:12.093Z,9.22
2024-05-09T02:58:41.583Z,9.25
2024-05-09T03:01:11.075Z,9.29
2024-05-09T03:03:38.092Z,9.20
2024-05-09T03:06:08.061Z,9.24
2024-05-09T03:08:35.089Z,9.18
2024-05-09T03:11:04.792Z,9.12
2024-05-09T03:13:31.808Z,9.10
2024-05-09T03:16:04.990Z,9.14
2024-05-09T03:18:31.920Z,9.10
2024-05-09T03:21:01.782Z,9.05
2024-05-09T03:23:28.742Z,9.07
2024-05-09T03:25:58.400Z,9.02
2024-05-09T03:28:28.221Z,9.06
2024-05-09T03:30:57.876Z,9.09
2024-05-09T03:33:27.671Z,8.94
2024-05-09T03:35:57.242Z,8.96
2024-05-09T03:38:26.728Z,8.96
2024-05-09T03:40:56.258Z,8.92
2024-05-09T03:43:26.024Z,8.98
2024-05-09T03:45:57.115Z,8.84
2024-05-09T03:48:24.326Z,8.83
2024-05-09T03:50:56.736Z,8.80
2024-05-09T03:53:23.713Z,8.87
2024-05-09T03:55:53.241Z,8.86
2024-05-09T03:58:20.130Z,8.81
2024-05-09T04:00:49.664Z,8.90
2024-05-09T04:03:17.015Z,8.90
2024-05-09T04:05:46.716Z,8.89
2024-05-09T04:08:16.937Z,8.87
2024-05-09T04:10:46.575Z,8.87
2024-05-09T04:13:13.650Z,8.86
2024-05-09T04:15:43.292Z,8.84
2024-05-09T04:18:13.191Z,8.81
2024-05-09T04:20:43.033Z,8.82
2024-05-09T04:23:12.640Z,8.80
2024-05-09T04:25:47.166Z,8.80
2024-05-09T04:28:14.569Z,8.92
2024-05-09T04:30:44.385Z,8.92
2024-05-09T04:33:13.465Z,8.93
2024-05-09T04:35:44.889Z,8.94
2024-05-09T04:38:12.671Z,8.86
2024-05-09T04:40:42.373Z,8.87
2024-05-09T04:43:18.740Z,9.00
2024-05-09T04:45:48.484Z,9.04
2024-05-09T04:48:18.782Z,9.08
2024-05-09T04:50:48.440Z,9.21
2024-05-09T04:53:16.683Z,9.29
2024-05-09T04:55:49.707Z,9.24
2024-05-09T04:58:24.107Z,9.55
2024-05-09T05:00:51.017Z,9.00
2024-05-09T05:03:20.875Z,9.34
2024-05-09T05:05:50.599Z,9.46
2024-05-09T05:08:21.031Z,9.59
2024-05-09T05:10:48.997Z,9.73
2024-05-09T05:13:24.014Z,9.33
2024-05-09T05:15:53.338Z,9.20
2024-05-09T05:18:23.151Z,9.69
2024-05-09T05:20:50.298Z,10.90
2024-05-09T05:23:21.860Z,9.93
2024-05-09T05:25:50.555Z,10.66
2024-05-09T05:28:22.823Z,9.84
2024-05-09T05:30:50.203Z,10.04
2024-05-09T05:33:22.303Z,9.73
2024-05-09T05:35:49.715Z,9.33
2024-05-09T05:38:30.242Z,10.13
2024-05-09T05:40:57.269Z,9.98
2024-05-09T05:43:29.555Z,10.65
2024-05-09T05:45:56.470Z,10.09
2024-05-09T05:48:26.106Z,10.94
2024-05-09T05:50:53.291Z,9.73
2024-05-09T05:53:22.880Z,9.49
2024-05-09T05:55:49.804Z,10.08
2024-05-09T05:58:20.315Z,10.43
2024-05-09T06:00:53.028Z,10.01
2024-05-09T06:03:25.423Z,9.81
2024-05-09T06:05:52.432Z,10.10
2024-05-09T06:08:22.154Z,9.59
2024-05-09T06:10:49.284Z,9.57
2024-05-09T06:13:18.827Z,9.88
2024-05-09T06:15:45.636Z,10.15
2024-05-09T06:18:18.131Z,10.50
2024-05-09T06:20:45.568Z,10.22
2024-05-09T06:23:15.236Z,10.87
2024-05-09T06:25:42.779Z,10.52
2024-05-09T06:28:12.473Z,10.87
2024-05-09T06:30:42.142Z,10.67
2024-05-09T06:33:16.035Z,10.84
2024-05-09T06:35:46.452Z,11.03
2024-05-09T06:38:16.267Z,11.17
2024-05-09T06:40:44.262Z,11.11
2024-05-09T06:43:17.065Z,10.73
2024-05-09T06:45:46.756Z,11.03
2024-05-09T06:48:19.846Z,11.38
2024-05-09T06:50:50.395Z,11.45
2024-05-09T06:53:23.016Z,11.67
2024-05-09T06:55:50.187Z,11.95
2024-05-09T06:58:21.685Z,12.30
2024-05-09T07:00:48.841Z,12.23
2024-05-09T07:03:19.594Z,11.55
2024-05-09T07:05:52.620Z,11.85
2024-05-09T07:08:22.413Z,12.11
2024-05-09T07:10:49.936Z,12.40
2024-05-09T07:13:19.553Z,12.18
2024-05-09T07:15:46.414Z,11.73
2024-05-09T07:18:20.078Z,11.84
2024-05-09T07:20:50.790Z,12.39
2024-05-09T07:23:21.051Z,12.64
2024-05-09T07:25:48.339Z,12.60
2024-05-09T07:28:19.139Z,12.94
2024-05-09T07:30:46.307Z,12.56
2024-05-09T07:33:20.042Z,12.59
2024-05-09T07:35:51.032Z,12.77
2024-05-09T07:38:20.864Z,12.31
2024-05-09T07:40:48.039Z,12.96
2024-05-09T07:43:18.309Z,12.60
2024-05-09T07:45:52.192Z,12.74
2024-05-09T07:50:00.721Z,12.70
2024-05-09T07:53:52.379Z,13.19
2024-05-09T07:56:23.432Z,12.97
2024-05-09T07:58:55.399Z,13.39
2024-05-09T08:01:25.486Z,13.11
2024-05-09T08:03:55.675Z,13.96
2024-05-09T08:06:26.278Z,13.71
2024-05-09T08:08:57.904Z,13.75
2024-05-09T08:11:27.737Z,13.65
2024-05-09T08:13:57.292Z,13.90
2024-05-09T08:16:24.193Z,13.92
2024-05-09T08:18:55.385Z,13.68
2024-05-09T08:21:22.350Z,14.31
2024-05-09T08:23:54.506Z,13.81
2024-05-09T08:26:21.532Z,13.96
2024-05-09T08:28:50.980Z,13.98
2024-05-09T08:31:17.966Z,14.27
2024-05-09T08:33:49.072Z,14.11
2024-05-09T08:36:16.092Z,14.01
2024-05-09T08:38:45.758Z,13.73
2024-05-09T08:41:16.031Z,14.18
2024-05-09T08:43:47.170Z,14.56
2024-05-09T08:46:14.347Z,14.73
2024-05-09T08:48:46.582Z,14.65
2024-05-09T08:51:14.209Z,14.77
2024-05-09T08:53:46.075Z,14.81
2024-05-09T08:56:17.206Z,14.93
2024-05-09T08:58:48.071Z,14.56
2024-05-09T09:01:16.117Z,15.07
2024-05-09T09:03:47.730Z,15.04
2024-05-09T09:06:18.295Z,15.12
2024-05-09T09:08:48.760Z,15.00
2024-05-09T09:11:18.402Z,15.22
2024-05-09T09:13:47.887Z,15.08
2024-05-09T09:16:16.202Z,15.28
2024-05-09T09:18:47.332Z,15.45
2024-05-09T09:21:14.317Z,15.44
2024-05-09T09:23:43.854Z,15.81
2024-05-09T09:26:18.408Z,15.76
2024-05-09T09:28:48.097Z,15.58
2024-05-09T09:31:18.107Z,15.73
2024-05-09T09:33:48.331Z,16.03
2024-05-09T09:36:15.268Z,15.84
2024-05-09T09:38:45.409Z,15.88
2024-05-09T09:41:13.265Z,16.23
2024-05-09T09:43:45.821Z,15.21
2024-05-09T09:46:14.500Z,15.39
2024-05-09T09:48:45.410Z,14.99
2024-05-09T09:51:13.995Z,15.53
2024-05-09T09:53:46.196Z,15.87
2024-05-09T09:56:17.269Z,16.16
2024-05-09T09:58:50.974Z,16.11
2024-05-09T10:01:18.003Z,15.76
2024-05-09T10:03:48.040Z,16.08
2024-05-09T10:06:15.942Z,15.93
2024-05-09T10:08:47.852Z,15.43
2024-05-09T10:11:20.067Z,15.79
2024-05-09T10:13:54.975Z,15.91
2024-05-09T10:16:22.398Z,15.46
2024-05-09T10:18:52.127Z,15.16
2024-05-09T10:21:19.955Z,15.63
2024-05-09T10:24:00.140Z,16.00
2024-05-09T10:26:32.066Z,16.52
2024-05-09T10:29:16.536Z,16.13
2024-05-09T10:31:44.672Z,15.82
2024-05-09T10:34:20.185Z,16.00
2024-05-09T10:36:52.637Z,15.73
2024-05-09T10:39:22.976Z,15.42
2024-05-09T10:41:50.073Z,15.42
2024-05-09T10:44:24.505Z,15.39
2024-05-09T10:46:53.704Z,16.00
2024-05-09T10:49:23.772Z,16.33
2024-05-09T10:51:51.908Z,16.55
2024-05-09T10:54:23.168Z,16.38
2024-05-09T10:56:56.458Z,16.79
2024-05-09T10:59:35.593Z,16.90
2024-05-09T11:02:04.740Z,17.09
2024-05-09T11:04:36.214Z,17.80
2024-05-09T11:07:07.621Z,17.55
2024-05-09T11:09:38.462Z,17.62
2024-05-09T11:12:06.116Z,17.37
2024-05-09T11:14:38.421Z,17.29
2024-05-09T11:17:06.989Z,17.67
2024-05-09T11:19:38.541Z,18.06
2024-05-09T11:22:05.612Z,16.92
2024-05-09T11:24:35.841Z,17.29
2024-05-09T11:27:04.230Z,17.07
2024-05-09T11:29:47.421Z,16.99
2024-05-09T11:32:16.434Z,17.33
2024-05-09T11:34:46.026Z,17.37
2024-05-09T11:37:13.822Z,18.04
2024-05-09T11:39:43.544Z,17.38
2024-05-09T11:42:10.467Z,17.01
2024-05-09T11:44:42.584Z,17.17
2024-05-09T11:47:09.545Z,16.90
2024-05-09T11:49:39.299Z,16.38
2024-05-09T11:52:06.576Z,16.87
2024-05-09T11:54:38.558Z,17.40
2024-05-09T11:57:09.504Z,17.31
2024-05-09T11:59:36.399Z,17.92
2024-05-09T12:02:08.661Z,17.64
2024-05-09T12:04:35.770Z,17.45
2024-05-09T12:07:05.417Z,17.89
2024-05-09T12:09:32.408Z,18.22
2024-05-09T12:12:01.885Z,18.01
2024-05-09T12:14:28.734Z,18.16
2024-05-09T12:17:01.898Z,18.20
2024-05-09T12:19:31.994Z,17.88
2024-05-09T12:22:01.594Z,17.80
2024-05-09T12:24:30.433Z,17.86
2024-05-09T12:27:00.178Z,17.23
2024-05-09T12:29:27.372Z,17.65
2024-05-09T12:31:56.890Z,18.13
2024-05-09T12:34:23.910Z,17.69
2024-05-09T12:36:56.388Z,17.68
2024-05-09T12:39:23.295Z,17.71
2024-05-09T12:41:52.757Z,17.86
2024-05-09T12:44:19.876Z,18.03
2024-05-09T12:46:49.588Z,18.58
2024-05-09T12:49:18.905Z,18.53
2024-05-09T12:51:49.091Z,17.88
2024-05-09T12:54:18.624Z,17.83
2024-05-09T12:56:48.128Z,17.88
2024-05-09T12:59:14.982Z,18.28
2024-05-09T13:01:44.556Z,18.54
2024-05-09T13:04:11.626Z,18.13
2024-05-09T13:06:41.236Z,18.27
2024-05-09T13:09:08.131Z,18.28
2024-05-09T13:11:40.443Z,18.53
2024-05-09T13:14:07.318Z,18.75
2024-05-09T13:16:38.918Z,18.71
2024-05-09T13:19:06.072Z,18.43
2024-05-09T13:21:35.659Z,18.12
2024-05-09T13:24:02.568Z,17.58
2024-05-09T13:26:32.079Z,17.86
2024-05-09T13:29:01.564Z,17.89
2024-05-09T13:31:31.122Z,18.40
2024-05-09T13:33:58.336Z,18.52
2024-05-09T13:36:28.218Z,18.39
2024-05-09T13:38:56.531Z,18.09
2024-05-09T13:41:26.053Z,18.07
2024-05-09T13:43:53.574Z,17.83
2024-05-09T13:46:25.779Z,18.33
2024-05-09T13:48:52.790Z,18.43
2024-05-09T13:51:22.345Z,18.43
2024-05-09T13:53:51.902Z,18.47
2024-05-09T13:56:18.820Z,18.43
2024-05-09T13:58:50.461Z,18.11
2024-05-09T14:01:17.439Z,18.83
2024-05-09T14:03:49.887Z,18.63
2024-05-09T14:06:16.856Z,18.59
2024-05-09T14:08:46.404Z,18.64
2024-05-09T14:11:13.456Z,18.87
2024-05-09T14:13:43.058Z,18.76
2024-05-09T14:16:10.059Z,18.80
2024-05-09T14:18:39.734Z,18.51
2024-05-09T14:21:10.989Z,18.82
2024-05-09T14:23:40.541Z,18.86
2024-05-09T14:26:07.447Z,18.91
2024-05-09T14:28:37.015Z,18.61
2024-05-09T14:31:07.032Z,18.76
2024-05-09T14:33:36.868Z,18.59
2024-05-09T14:36:04.149Z,18.86
2024-05-09T14:38:36.261Z,18.52
2024-05-09T14:41:03.287Z,18.58
2024-05-09T14:43:32.951Z,18.95
2024-05-09T14:46:00.036Z,19.01
2024-05-09T14:48:30.143Z,18.99
2024-05-09T14:50:57.174Z,18.58
2024-05-09T14:53:28.370Z,18.69
2024-05-09T14:55:58.045Z,18.71
2024-05-09T14:58:29.917Z,18.89
2024-05-09T15:00:56.890Z,18.83
2024-05-09T15:03:27.171Z,18.80
2024-05-09T15:05:54.221Z,18.91
2024-05-09T15:08:23.921Z,19.11
2024-05-09T15:10:51.031Z,18.74
2024-05-09T15:13:23.912Z,18.50
2024-05-09T15:15:51.118Z,18.42
2024-05-09T15:18:21.025Z,18.80
2024-05-09T15:20:48.539Z,18.99
2024-05-09T15:23:18.374Z,19.29
2024-05-09T15:25:45.306Z,19.26
2024-05-09T15:28:14.913Z,18.97
2024-05-09T15:30:46.551Z,18.55
2024-05-09T15:33:16.775Z,18.64
2024-05-09T15:35:46.044Z,18.61
2024-05-09T15:38:18.560Z,18.92
2024-05-09T15:40:45.867Z,18.68
2024-05-09T15:43:15.693Z,18.59
2024-05-09T15:45:45.347Z,18.90
2024-05-09T15:48:15.045Z,18.82
2024-05-09T15:50:45.448Z,18.85
2024-05-09T15:53:15.202Z,18.70
2024-05-09T15:55:45.361Z,18.55
2024-05-09T15:58:15.945Z,18.72
2024-05-09T16:00:47.787Z,18.69
2024-05-09T16:03:21.042Z,18.55
2024-05-09T16:05:48.414Z,18.66
2024-05-09T16:08:18.707Z,18.86
2024-05-09T16:10:47.236Z,18.68
2024-05-09T16:13:17.993Z,18.72
2024-05-09T16:15:47.871Z,18.85
2024-05-09T16:18:17.718Z,18.64
2024-05-09T16:20:46.469Z,18.53
2024-05-09T16:23:18.033Z,18.59
2024-05-09T16:25:47.688Z,18.59
2024-05-09T16:28:17.653Z,18.68
2024-05-09T16:30:47.345Z,18.56
2024-05-09T16:33:19.457Z,18.62
2024-05-09T16:35:46.864Z,18.46
2024-05-09T16:38:16.476Z,18.46
2024-05-09T16:40:43.568Z,18.34
2024-05-09T16:43:14.473Z,18.38
2024-05-09T16:45:44.851Z,18.33
2024-05-09T16:48:17.332Z,18.43
2024-05-09T16:50:47.130Z,18.50
2024-05-09T16:53:16.592Z,18.32
2024-05-09T16:55:43.595Z,18.29
2024-05-09T16:58:16.238Z,18.36
2024-05-09T17:00:44.259Z,18.38
2024-05-09T17:03:17.486Z,18.31
2024-05-09T17:05:46.791Z,18.32
2024-05-09T17:08:18.446Z,18.30
2024-05-09T17:10:45.639Z,18.10
2024-05-09T17:13:18.338Z,18.15
2024-05-09T17:15:48.440Z,18.19
2024-05-09T17:18:21.111Z,17.98
2024-05-09T17:20:51.443Z,17.93
2024-05-09T17:23:18.456Z,17.94
2024-05-09T17:25:50.999Z,17.87
2024-05-09T17:28:20.521Z,17.89
2024-05-09T17:30:50.347Z,17.89
2024-05-09T17:33:20.118Z,17.83
2024-05-09T17:35:50.386Z,17.83
2024-05-09T17:38:17.677Z,17.83
2024-05-09T17:40:47.239Z,17.64
2024-05-09T17:43:14.344Z,17.50
2024-05-09T17:45:43.982Z,17.46
2024-05-09T17:48:12.074Z,17.42
2024-05-09T17:50:44.872Z,17.28
2024-05-09T17:53:11.945Z,17.27
2024-05-09T17:55:42.781Z,17.12
2024-05-09T17:58:10.299Z,17.13
2024-05-09T18:00:42.161Z,17.09
2024-05-09T18:03:11.972Z,16.99
2024-05-09T18:05:48.137Z,16.88
2024-05-09T18:08:15.110Z,16.68
2024-05-09T18:10:45.231Z,16.69
2024-05-09T18:13:13.262Z,16.69
2024-05-09T18:15:44.884Z,16.48
2024-05-09T18:18:12.782Z,16.64
2024-05-09T18:20:46.249Z,16.57
2024-05-09T18:23:15.784Z,16.50
2024-05-09T18:25:49.721Z,16.49
2024-05-09T18:28:17.480Z,16.42
2024-05-09T18:30:47.552Z,16.20
2024-05-09T18:33:15.003Z,16.33
2024-05-09T18:35:48.764Z,16.50
2024-05-09T18:38:16.114Z,16.57
2024-05-09T18:40:49.656Z,16.48
2024-05-09T18:43:17.207Z,16.39
2024-05-09T18:45:47.522Z,16.33
2024-05-09T18:48:14.762Z,16.31
2024-05-09T18:50:47.056Z,16.23
2024-05-09T18:53:14.123Z,16.15
2024-05-09T18:55:44.295Z,16.13
2024-05-09T18:58:13.978Z,16.03
2024-05-09T19:00:46.029Z,15.96
2024-05-09T19:03:15.843Z,15.96
2024-05-09T19:05:48.750Z,15.94
2024-05-09T19:08:15.936Z,15.85
2024-05-09T19:10:46.353Z,15.74
2024-05-09T19:13:14.507Z,15.78
2024-05-09T19:15:44.902Z,15.43
2024-05-09T19:18:12.591Z,15.63
2024-05-09T19:20:42.595Z,15.57
2024-05-09T19:23:12.293Z,15.54
2024-05-09T19:25:42.095Z,15.52
2024-05-09T19:28:09.233Z,15.55
2024-05-09T19:30:41.806Z,15.47
2024-05-09T19:33:11.125Z,15.37
2024-05-09T19:35:41.959Z,15.43
2024-05-09T19:38:12.094Z,15.28
2024-05-09T19:40:41.951Z,15.22
2024-05-09T19:43:09.316Z,15.28
2024-05-09T19:45:39.243Z,15.26
2024-05-09T19:48:07.301Z,15.14
2024-05-09T19:50:42.530Z,15.16
2024-05-09T19:53:14.347Z,15.15
2024-05-09T19:55:44.740Z,15.09
2024-05-09T19:58:12.816Z,15.07
2024-05-09T20:00:44.170Z,15.08
2024-05-09T20:03:12.762Z,15.05
2024-05-09T20:05:42.814Z,14.94
2024-05-09T20:08:10.057Z,14.96
2024-05-09T20:10:42.285Z,14.90
2024-05-09T20:13:09.434Z,14.81
2024-05-09T20:15:39.943Z,14.84
2024-05-09T20:18:07.576Z,14.75
2024-05-09T20:20:41.596Z,14.75
2024-05-09T20:23:11.254Z,14.73
2024-05-09T20:25:44.973Z,14.72
2024-05-09T20:28:12.020Z,14.68
2024-05-09T20:30:41.816Z,14.65
2024-05-09T20:33:09.767Z,14.65
2024-05-09T20:35:39.568Z,14.51
2024-05-09T20:38:06.732Z,14.48
2024-05-09T20:40:38.910Z,14.40
2024-05-09T20:43:10.348Z,14.35
2024-05-09T20:45:40.762Z,14.42
2024-05-09T20:48:09.307Z,14.35
2024-05-09T20:50:41.619Z,14.33
2024-05-09T20:53:11.275Z,14.40
2024-05-09T20:55:41.401Z,14.18
2024-05-09T20:58:11.293Z,14.26
2024-05-09T21:00:44.196Z,14.15
2024-05-09T21:03:15.227Z,14.13
2024-05-09T21:05:46.773Z,14.08
2024-05-09T21:08:14.262Z,14.01
2024-05-09T21:10:44.392Z,14.08
2024-05-09T21:13:14.121Z,13.94
2024-05-09T21:15:46.710Z,13.98
2024-05-09T21:18:13.681Z,13.91
2024-05-09T21:20:43.162Z,13.92
2024-05-09T21:23:10.141Z,13.84
2024-05-09T21:25:41.393Z,13.83
2024-05-09T21:28:08.352Z,13.86
2024-05-09T21:30:42.830Z,13.80
2024-05-09T21:33:12.805Z,13.74
2024-05-09T21:35:44.513Z,13.70
2024-05-09T21:38:13.535Z,13.75
2024-05-09T21:40:43.526Z,13.61
2024-05-09T21:43:10.582Z,13.60
2024-05-09T21:45:43.073Z,13.53
2024-05-09T21:48:13.181Z,13.63
2024-05-09T21:50:42.982Z,13.69
2024-05-09T21:53:10.265Z,13.61
2024-05-09T21:55:39.980Z,13.45
2024-05-09T21:58:06.990Z,13.46
2024-05-09T22:00:39.383Z,13.50
2024-05-09T22:03:10.931Z,13.39
2024-05-09T22:05:44.145Z,13.37
2024-05-09T22:08:11.533Z,13.31
2024-05-09T22:10:41.269Z,13.31
2024-05-09T22:13:08.794Z,13.26
2024-05-09T22:15:40.538Z,13.32
2024-05-09T22:18:11.453Z,13.24
2024-05-09T22:20:45.235Z,13.29
2024-05-09T22:23:13.587Z,13.13
2024-05-09T22:25:43.301Z,13.12
2024-05-09T22:28:10.492Z,13.09
2024-05-09T22:30:40.572Z,13.08
2024-05-09T22:33:11.696Z,13.04
2024-05-09T22:35:41.941Z,12.97
2024-05-09T22:38:09.001Z,12.94
2024-05-09T22:40:46.777Z,12.97
2024-05-09T22:43:18.367Z,13.00
2024-05-09T22:45:48.905Z,12.92
2024-05-09T22:48:19.097Z,12.90
2024-05-09T22:50:48.745Z,12.88
2024-05-09T22:53:15.758Z,12.88
2024-05-09T22:55:45.256Z,12.81
2024-05-09T22:58:12.414Z,12.78
2024-05-09T23:00:42.044Z,12.77
2024-05-09T23:03:09.184Z,12.73
2024-05-09T23:05:41.304Z,12.73
2024-05-09T23:08:10.911Z,12.70
2024-05-09T23:10:40.422Z,12.70
2024-05-09T23:13:08.248Z,12.65
2024-05-09T23:15:39.363Z,12.55
2024-05-09T23:18:06.632Z,12.47
2024-05-09T23:20:39.160Z,12.59
2024-05-09T23:23:11.413Z,12.55
2024-05-09T23:25:42.158Z,12.53
2024-05-09T23:28:09.375Z,12.49
2024-05-09T23:30:40.823Z,12.53
2024-05-09T23:33:10.477Z,12.51
2024-05-09T23:35:40.492Z,12.41
2024-05-09T23:38:10.031Z,12.43
2024-05-09T23:40:41.347Z,12.32
2024-05-09T23:43:09.761Z,11.42
2024-05-09T23:45:40.019Z,11.91
2024-05-09T23:48:08.040Z,12.16
2024-05-09T23:50:39.523Z,12.23
2024-05-09T23:53:10.843Z,12.16
2024-05-09T23:55:41.275Z,12.13
2024-05-09T23:58:08.357Z,12.15
